Time;durP1;ratioP1;P1;durP2;ratioP2;P2;SDS_P1;SDS_P2;PMS_P1;PMS_P2;Temp;Humidity;BMP_temperature;BMP_pressure;BME280_temperature;BME280_humidity;BME280_pressure;Samples;Min_cycle;Max_cycle;Signal;HPM_P1;HPM_P2
2021/07/30 00:03:39;;;;;;;;;;;17.90;99.90;;;16.74;93.81;95377.22;10295712;28;2055;-82
2021/07/30 00:09:00;;;;;;;;;;;17.80;99.90;;;16.67;94.10;95374.16;10289769;28;2213;-81
2021/07/30 00:14:03;;;;;;;;;;;17.70;99.90;;;16.59;95.13;95374.94;10306241;28;1860;-80
2021/07/30 00:19:06;;;;;;;;;;;17.70;99.90;;;17.00;94.49;95377.16;10320669;28;2091;-81
2021/07/30 00:24:08;;;;;;;;;;;17.70;99.90;;;17.26;92.21;95379.78;10335705;28;1702;-80
2021/07/30 00:29:11;;;;;;;;;;;17.90;99.90;;;17.95;87.90;95377.88;10304622;28;2027;-82
2021/07/30 00:34:14;;;;;;;;;;;18.50;99.90;;;17.42;89.22;95371.06;10293711;28;2238;-79
2021/07/30 00:39:16;;;;;;;;;;;18.50;99.90;;;17.21;90.28;95371.00;10283245;28;2170;-80
2021/07/30 00:44:19;;;;;;;;;;;18.30;99.90;;;17.22;91.27;95367.94;10306304;28;2131;-79
2021/07/30 00:49:22;;;;;;;;;;;18.20;99.90;;;17.38;91.16;95370.94;10285698;28;2186;-81
2021/07/30 00:54:25;;;;;;;;;;;18.20;99.90;;;17.47;90.43;95374.41;10306368;28;1979;-82
2021/07/30 00:59:28;;;;;;;;;;;18.30;99.90;;;17.80;88.78;95379.22;10290284;28;2191;-80
2021/07/30 01:04:30;;;;;;;;;;;18.50;99.90;;;17.74;87.90;95381.31;10285424;28;2187;-78
2021/07/30 01:09:33;;;;;;;;;;;18.60;99.90;;;17.35;88.96;95381.66;10265441;28;2128;-77
2021/07/30 01:14:36;;;;;;;;;;;18.50;99.90;;;17.18;90.44;95383.31;10290642;28;2297;-79
2021/07/30 01:19:39;;;;;;;;;;;18.30;99.90;;;17.07;91.92;95378.56;10283367;28;2125;-80
2021/07/30 01:24:42;;;;;;;;;;;18.10;99.90;;;16.97;92.37;95377.78;10287710;28;2167;-82
2021/07/30 01:29:45;;;;;;;;;;;18.00;99.90;;;16.90;92.79;95365.81;10293844;28;2141;-83
2021/07/30 01:34:47;;;;;;;;;;;17.90;99.90;;;16.88;93.13;95368.06;10284799;28;2192;-79
2021/07/30 01:39:50;;;;;;;;;;;17.80;99.90;;;16.84;94.32;95367.13;10272912;28;2563;-82
2021/07/30 01:44:53;;;;;;;;;;;17.80;99.90;;;16.78;94.54;95368.41;10279965;28;2077;-81
2021/07/30 01:49:55;;;;;;;;;;;17.70;99.90;;;16.71;94.94;95371.59;10293344;28;2175;-80
2021/07/30 01:54:58;;;;;;;;;;;17.70;99.90;;;16.53;95.31;95365.38;10302307;28;2335;-78
2021/07/30 02:00:01;;;;;;;;;;;17.60;99.90;;;16.43;95.85;95357.59;10304044;28;2303;-79
2021/07/30 02:05:05;;;;;;;;;;;17.50;99.90;;;16.35;97.52;95375.47;10303910;28;2260;-82
2021/07/30 02:10:07;;;;;;;;;;;17.40;99.90;;;16.35;98.39;95374.63;10284084;28;2046;-82
2021/07/30 02:15:10;;;;;;;;;;;17.40;99.90;;;16.25;98.99;95374.97;10291285;28;2160;-78
2021/07/30 02:20:13;;;;;;;;;;;17.30;99.90;;;16.21;99.08;95383.72;10272000;28;2144;-80
2021/07/30 02:25:16;;;;;;;;;;;17.20;99.90;;;16.25;98.94;95389.34;10293635;28;2097;-82
2021/07/30 02:30:18;;;;;;;;;;;17.20;99.90;;;16.27;98.80;95386.28;10273422;28;2057;-81
2021/07/30 02:35:21;;;;;;;;;;;17.20;99.90;;;16.44;97.82;95391.72;10289821;28;2237;-79
2021/07/30 02:40:24;;;;;;;;;;;17.30;99.90;;;16.74;96.07;95387.28;10291644;28;2315;-81
2021/07/30 02:45:26;;;;;;;;;;;17.50;99.90;;;16.63;96.38;95392.19;10304403;28;2551;-80
2021/07/30 02:50:29;;;;;;;;;;;17.50;99.90;;;16.68;97.20;95399.38;10301453;28;2165;-81
2021/07/30 02:55:32;;;;;;;;;;;17.50;99.90;;;16.89;95.65;95403.03;10309496;28;2337;-80
2021/07/30 03:00:35;;;;;;;;;;;17.60;99.90;;;16.71;96.21;95415.84;10286431;28;2505;-80
2021/07/30 03:05:37;;;;;;;;;;;17.60;99.90;;;16.68;96.14;95411.03;10290011;28;2205;-81
2021/07/30 03:10:42;;;;;;;;;;;17.50;99.90;;;16.70;94.67;95416.97;10287966;28;2111;-80
2021/07/30 03:15:44;;;;;;;;;;;17.50;99.90;;;16.77;94.17;95408.31;10299238;28;2177;-79
2021/07/30 03:20:47;;;;;;;;;;;17.50;99.90;;;16.80;93.09;95423.19;10294957;28;2097;-80
2021/07/30 03:25:50;;;;;;;;;;;17.50;99.90;;;16.65;93.47;95408.16;10295946;28;2145;-80
2021/07/30 03:30:52;;;;;;;;;;;17.50;99.90;;;16.16;95.82;95412.94;10297017;28;2111;-80
2021/07/30 03:35:55;;;;;;;;;;;17.30;99.90;;;16.18;95.88;95422.34;10284243;28;2110;-82
2021/07/30 03:40:58;;;;;;;;;;;17.10;99.90;;;16.30;94.29;95423.66;10309292;28;2047;-82
2021/07/30 03:46:01;;;;;;;;;;;17.10;99.90;;;16.25;92.14;95421.09;10302597;28;2193;-83
2021/07/30 03:51:03;;;;;;;;;;;17.20;99.90;;;15.99;94.40;95432.69;10324813;28;1883;-81
2021/07/30 03:56:06;;;;;;;;;;;17.00;99.90;;;15.65;94.33;95409.81;10334342;28;1900;-81
2021/07/30 04:01:09;;;;;;;;;;;16.80;99.90;;;15.53;95.44;95422.34;10295410;28;2059;-81
2021/07/30 04:06:12;;;;;;;;;;;16.60;99.90;;;15.56;95.48;95427.91;10304233;28;2122;-82
2021/07/30 04:11:15;;;;;;;;;;;16.60;99.90;;;15.59;94.86;95416.47;10284126;28;1973;-81
2021/07/30 04:16:17;;;;;;;;;;;16.60;99.90;;;15.70;94.15;95413.47;10275605;28;2086;-81
2021/07/30 04:21:20;;;;;;;;;;;16.60;99.90;;;16.08;91.87;95428.06;10287751;28;1664;-81
2021/07/30 04:26:23;;;;;;;;;;;16.80;99.90;;;16.68;88.74;95402.88;10287452;28;2000;-80
2021/07/30 04:31:25;;;;;;;;;;;17.10;99.90;;;17.12;84.79;95410.97;10306268;28;1955;-79
2021/07/30 04:36:28;;;;;;;;;;;17.60;99.90;;;16.92;83.53;95415.16;10287478;28;2124;-81
2021/07/30 04:41:31;;;;;;;;;;;17.70;99.90;;;16.91;84.90;95410.84;10294312;28;2217;-78
2021/07/30 04:46:34;;;;;;;;;;;17.60;99.90;;;17.10;83.59;95411.28;10293643;28;1862;-81
2021/07/30 04:51:36;;;;;;;;;;;17.80;99.90;;;17.12;83.69;95406.34;10295386;28;2054;-82
2021/07/30 04:56:40;;;;;;;;;;;17.80;99.90;;;17.09;85.05;95398.84;10298571;28;1843;-79
2021/07/30 05:01:42;;;;;;;;;;;17.80;99.90;;;17.12;84.92;95397.41;10299237;28;2139;-79
2021/07/30 05:06:45;;;;;;;;;;;17.90;99.90;;;17.87;81.04;95403.16;10293541;28;2196;-79
2021/07/30 05:11:48;;;;;;;;;;;18.20;99.90;;;18.34;78.89;95414.72;10290943;28;2190;-82
2021/07/30 05:16:51;;;;;;;;;;;18.70;99.90;;;18.64;76.59;95404.56;10290414;28;1981;-78
2021/07/30 05:21:54;;;;;;;;;;;19.10;99.90;;;19.16;72.41;95388.53;10293617;28;2015;-79
2021/07/30 05:27:02;;;;;;;;;;;19.50;99.90;;;19.57;68.60;95405.81;10290398;28;2219;-81
2021/07/30 05:32:05;;;;;;;;;;;20.00;99.90;;;20.09;65.85;95390.72;10285672;28;1938;-79
2021/07/30 05:37:08;;;;;;;;;;;20.40;99.90;;;20.16;65.01;95391.72;10287574;28;2078;-81
2021/07/30 05:42:10;;;;;;;;;;;20.60;99.90;;;20.21;64.77;95390.72;10282142;28;2094;-80
2021/07/30 05:47:13;;;;;;;;;;;20.80;99.90;;;20.64;62.74;95378.34;10285097;28;2097;-81
2021/07/30 05:52:17;;;;;;;;;;;21.10;99.90;;;20.53;63.07;95380.75;10289411;28;2080;-81
2021/07/30 05:57:20;;;;;;;;;;;21.10;99.90;;;20.43;63.50;95389.41;10287511;28;1605;-79
2021/07/30 06:02:22;;;;;;;;;;;21.20;99.90;;;20.50;64.67;95382.25;10291221;28;2020;-82
2021/07/30 06:07:25;;;;;;;;;;;21.10;99.90;;;20.86;63.05;95385.97;10291473;28;2154;-82
2021/07/30 06:12:28;;;;;;;;;;;21.40;99.90;;;21.16;62.88;95377.41;10281219;28;2292;-81
2021/07/30 06:17:32;;;;;;;;;;;21.70;99.90;;;21.52;62.49;95379.13;10279558;28;2117;-81
2021/07/30 06:22:36;;;;;;;;;;;22.00;99.90;;;21.68;61.35;95371.69;10267113;28;2042;-82
2021/07/30 06:27:38;;;;;;;;;;;22.20;99.90;;;21.56;61.73;95378.06;10275577;28;2111;-81
2021/07/30 06:32:41;;;;;;;;;;;22.30;99.90;;;21.80;61.65;95376.28;10274667;28;2166;-82
2021/07/30 06:37:44;;;;;;;;;;;22.50;99.90;;;22.30;60.30;95380.19;10278953;28;2219;-80
2021/07/30 06:42:46;;;;;;;;;;;22.70;99.90;;;21.57;62.20;95387.09;10290239;28;2237;-82
2021/07/30 06:47:49;;;;;;;;;;;22.50;99.90;;;21.33;62.65;95392.72;10277547;28;1728;-80
2021/07/30 06:52:52;;;;;;;;;;;22.20;99.90;;;21.44;62.79;95391.03;10300577;28;2118;-80
2021/07/30 06:57:55;;;;;;;;;;;22.30;99.90;;;21.91;60.63;95385.53;10301171;28;1566;-81
2021/07/30 07:02:57;;;;;;;;;;;22.50;99.90;;;22.35;58.59;95382.66;10288855;28;2062;-82
2021/07/30 07:08:00;;;;;;;;;;;22.90;99.90;;;22.47;59.67;95379.00;10285947;28;1860;-81
2021/07/30 07:13:03;;;;;;;;;;;23.10;99.90;;;22.56;59.03;95371.34;10295110;28;2050;-79
2021/07/30 07:18:06;;;;;;;;;;;23.30;99.90;;;23.04;57.89;95378.22;10301513;28;2094;-82
2021/07/30 07:23:08;;;;;;;;;;;23.60;99.90;;;23.01;58.07;95380.88;10290506;28;1961;-81
2021/07/30 07:28:11;;;;;;;;;;;23.70;99.90;;;23.38;56.27;95362.75;10311055;28;2100;-78
2021/07/30 07:33:14;;;;;;;;;;;24.00;99.90;;;23.61;56.00;95373.78;10291095;28;1902;-80
2021/07/30 07:38:17;;;;;;;;;;;24.10;99.90;;;23.66;55.84;95356.19;10296471;28;2077;-82
2021/07/30 07:43:22;;;;;;;;;;;24.30;99.90;;;23.89;56.11;95347.94;10298921;28;2228;-82
2021/07/30 07:48:25;;;;;;;;;;;24.40;99.90;;;24.30;55.34;95354.38;10319428;28;1962;-80
2021/07/30 07:53:28;;;;;;;;;;;24.80;99.90;;;24.37;55.91;95343.56;10305216;28;1946;-80
2021/07/30 07:58:30;;;;;;;;;;;24.90;99.90;;;24.27;56.14;95352.41;10288028;28;1750;-80
2021/07/30 08:03:33;;;;;;;;;;;25.00;99.90;;;24.40;55.97;95355.72;10296216;28;2335;-80
2021/07/30 08:08:36;;;;;;;;;;;25.00;99.90;;;24.72;54.89;95351.44;10297964;28;2146;-81
2021/07/30 08:13:39;;;;;;;;;;;25.30;99.90;;;24.32;56.25;95359.53;10286696;28;1939;-82
2021/07/30 08:18:41;;;;;;;;;;;25.10;99.90;;;24.65;55.90;95356.06;10293910;28;2130;-80
2021/07/30 08:23:44;;;;;;;;;;;25.10;99.90;;;24.58;56.18;95355.97;10284212;28;2162;-82
2021/07/30 08:28:47;;;;;;;;;;;25.20;99.90;;;24.92;55.44;95359.50;10280824;28;2189;-80
2021/07/30 08:33:49;;;;;;;;;;;25.50;99.90;;;24.90;55.34;95365.38;10296662;28;2271;-80
2021/07/30 08:38:52;;;;;;;;;;;25.50;99.90;;;25.26;54.89;95352.84;10280654;28;1927;-82
2021/07/30 08:43:55;;;;;;;;;;;25.90;99.90;;;25.41;54.87;95353.75;10297349;28;2147;-79
2021/07/30 08:48:58;;;;;;;;;;;26.10;99.90;;;25.23;55.90;95356.34;10303873;28;1876;-81
2021/07/30 08:54:01;;;;;;;;;;;26.10;99.90;;;25.12;55.75;95355.44;10279729;28;1915;-81
2021/07/30 08:59:04;;;;;;;;;;;25.90;99.90;;;25.40;55.50;95348.63;10294658;28;2026;-82
2021/07/30 09:04:07;;;;;;;;;;;26.20;99.90;;;25.57;54.69;95339.72;10301991;28;2043;-81
2021/07/30 09:09:12;;;;;;;;;;;26.30;99.90;;;26.00;52.51;95340.09;10285811;28;2048;-80
2021/07/30 09:14:14;;;;;;;;;;;26.50;99.90;;;25.66;54.44;95336.69;10286606;28;2125;-81
2021/07/30 09:19:17;;;;;;;;;;;26.50;99.90;;;26.38;51.38;95336.78;10282972;28;2100;-81
2021/07/30 09:24:20;;;;;;;;;;;26.80;99.90;;;26.42;52.22;95327.78;10283124;28;2147;-81
2021/07/30 09:29:23;;;;;;;;;;;26.90;99.90;;;25.60;53.88;95336.22;10286016;28;1970;-81
2021/07/30 09:34:26;;;;;;;;;;;26.60;99.90;;;25.39;53.64;95327.81;10285007;28;2177;-81
2021/07/30 09:39:28;;;;;;;;;;;26.30;99.90;;;25.39;54.71;95316.81;10282149;28;2217;-81
2021/07/30 09:44:31;;;;;;;;;;;26.20;99.90;;;25.32;55.02;95321.06;10281465;28;2105;-80
2021/07/30 09:49:34;;;;;;;;;;;26.40;99.90;;;26.18;53.23;95305.19;10286038;28;2154;-81
2021/07/30 09:54:37;;;;;;;;;;;26.70;99.90;;;25.96;51.91;95308.97;10276702;28;2140;-81
2021/07/30 09:59:40;;;;;;;;;;;26.60;99.90;;;26.13;50.30;95298.06;10280970;28;2082;-79
2021/07/30 10:04:43;;;;;;;;;;;26.70;99.90;;;26.25;48.21;95288.69;10276671;28;2161;-82
2021/07/30 10:09:47;;;;;;;;;;;26.90;99.90;;;26.25;49.85;95285.94;10272175;28;2490;-80
2021/07/30 10:14:50;;;;;;;;;;;27.00;99.90;;;26.43;47.39;95279.75;10275745;28;2154;-79
2021/07/30 10:19:53;;;;;;;;;;;27.20;99.90;;;26.39;48.86;95269.47;10281674;28;2046;-80
2021/07/30 10:24:56;;;;;;;;;;;27.10;99.90;;;26.66;49.50;95266.47;10281840;28;2050;-80
2021/07/30 10:29:59;;;;;;;;;;;27.40;99.90;;;26.91;48.60;95277.53;10277955;28;2264;-79
2021/07/30 10:35:02;;;;;;;;;;;27.50;99.90;;;26.15;48.97;95259.16;10312621;28;2082;-80
2021/07/30 10:40:04;;;;;;;;;;;27.40;99.90;;;25.75;49.40;95251.81;10310759;28;2180;-77
2021/07/30 10:45:07;;;;;;;;;;;27.00;99.90;;;26.35;49.58;95252.16;10306359;28;2138;-80
2021/07/30 10:50:10;;;;;;;;;;;26.90;99.90;;;26.66;47.68;95253.47;10309587;28;2316;-80
2021/07/30 10:55:13;;;;;;;;;;;27.20;99.90;;;27.63;44.00;95248.03;10298633;28;2110;-79
2021/07/30 11:00:15;;;;;;;;;;;28.10;99.90;;;26.92;46.56;95238.53;10294162;28;2012;-79
2021/07/30 11:05:18;;;;;;;;;;;29.60;99.90;;;27.93;42.87;95226.31;10297609;28;2091;-80
2021/07/30 11:10:21;;;;;;;;;;;29.70;99.90;;;28.78;41.13;95219.66;10288495;28;2069;-78
2021/07/30 11:15:23;;;;;;;;;;;30.80;99.90;;;29.67;37.92;95220.97;10274661;28;2613;-76
2021/07/30 11:20:26;;;;;;;;;;;31.90;99.90;;;30.16;36.30;95213.38;10292911;28;2222;-79
2021/07/30 11:25:29;;;;;;;;;;;32.90;99.90;;;30.12;37.72;95216.16;10292240;28;2153;-82
2021/07/30 11:30:32;;;;;;;;;;;32.60;99.50;;;29.94;36.29;95215.56;10305664;28;2093;-79
2021/07/30 11:35:34;;;;;;;;;;;32.60;94.60;;;29.62;37.35;95204.81;10308758;28;2038;-81
2021/07/30 11:40:39;;;;;;;;;;;32.20;94.70;;;28.93;39.49;95203.75;10309485;28;2114;-82
2021/07/30 11:45:42;;;;;;;;;;;31.10;95.90;;;28.38;40.46;95207.22;10292576;28;2016;-81
2021/07/30 11:50:44;;;;;;;;;;;30.00;97.20;;;27.96;40.65;95200.66;10320739;28;2173;-80
2021/07/30 11:55:47;;;;;;;;;;;29.30;97.50;;;27.52;41.73;95190.06;10314610;28;1899;-77
2021/07/30 12:00:50;;;;;;;;;;;28.70;98.50;;;27.24;40.38;95177.09;10326958;28;2117;-78
2021/07/30 12:05:53;;;;;;;;;;;28.50;96.60;;;27.40;41.60;95171.94;10306724;28;2000;-81
2021/07/30 12:10:56;;;;;;;;;;;28.40;98.60;;;28.08;40.35;95168.25;10318671;28;2082;-78
2021/07/30 12:15:59;;;;;;;;;;;28.70;98.40;;;27.86;40.41;95170.28;10316603;28;2010;-78
2021/07/30 12:21:02;;;;;;;;;;;28.60;97.90;;;28.23;36.71;95167.00;10309794;28;2050;-79
2021/07/30 12:26:04;;;;;;;;;;;28.70;93.50;;;28.29;37.16;95159.84;10297832;28;2163;-79
2021/07/30 12:31:07;;;;;;;;;;;28.90;93.10;;;28.94;36.91;95151.97;10296048;28;2206;-79
2021/07/30 12:36:10;;;;;;;;;;;29.20;94.30;;;28.92;38.11;95146.88;10294854;28;2034;-78
2021/07/30 12:41:14;;;;;;;;;;;29.80;93.60;;;29.46;37.74;95132.56;10301332;28;2015;-78
2021/07/30 12:46:17;;;;;;;;;;;30.10;93.80;;;29.33;38.41;95116.47;10281165;28;2208;-78
2021/07/30 12:51:20;;;;;;;;;;;30.30;93.90;;;28.82;38.49;95114.53;10280827;28;2163;-81
2021/07/30 12:56:23;;;;;;;;;;;29.70;92.80;;;30.02;36.75;95114.50;10287495;28;2111;-80
2021/07/30 13:01:25;;;;;;;;;;;30.20;93.80;;;29.60;38.83;95107.50;10302432;28;2181;-80
2021/07/30 13:06:31;;;;;;;;;;;30.50;93.50;;;29.40;37.19;95099.00;10296249;28;2400;-81
2021/07/30 13:11:34;;;;;;;;;;;30.20;91.40;;;29.59;37.39;95092.09;10312219;28;2110;-81
2021/07/30 13:16:37;;;;;;;;;;;30.30;91.80;;;29.92;36.54;95076.66;10298259;28;2224;-80
2021/07/30 13:21:40;;;;;;;;;;;30.60;90.40;;;29.41;34.90;95072.09;10297772;28;2156;-79
2021/07/30 13:26:42;;;;;;;;;;;30.60;86.90;;;29.05;36.17;95076.00;10315256;28;2117;-79
2021/07/30 13:31:45;;;;;;;;;;;30.30;87.40;;;28.52;36.63;95060.63;10310183;28;2260;-80
2021/07/30 13:36:48;;;;;;;;;;;29.80;86.40;;;29.46;36.16;95058.59;10311822;28;2138;-80
2021/07/30 13:41:51;;;;;;;;;;;30.10;88.40;;;29.63;36.02;95039.41;10315095;28;2174;-80
2021/07/30 13:46:53;;;;;;;;;;;30.30;88.40;;;30.35;35.57;95045.59;10320915;28;1991;-79
2021/07/30 13:51:56;;;;;;;;;;;30.60;87.80;;;30.11;35.37;95039.22;10315458;28;2621;-80
2021/07/30 13:56:59;;;;;;;;;;;30.70;86.90;;;30.55;34.83;95032.59;10311832;28;2091;-81
2021/07/30 14:02:02;;;;;;;;;;;31.00;86.60;;;30.01;34.44;95035.34;10320907;28;2275;-81
2021/07/30 14:07:05;;;;;;;;;;;31.00;84.10;;;29.26;34.93;95032.69;10317878;28;2229;-81
2021/07/30 14:12:08;;;;;;;;;;;30.60;83.20;;;29.41;35.46;95033.34;10317822;28;1963;-82
2021/07/30 14:17:10;;;;;;;;;;;30.30;84.60;;;28.95;36.96;95010.50;10308431;28;1769;-80
2021/07/30 14:22:14;;;;;;;;;;;30.10;85.90;;;29.49;34.82;95007.91;10280642;28;2106;-81
2021/07/30 14:27:16;;;;;;;;;;;30.20;83.80;;;29.37;35.92;95010.44;10281546;28;2411;-81
2021/07/30 14:32:19;;;;;;;;;;;30.20;85.20;;;29.73;35.03;95000.53;10284613;28;2137;-81
2021/07/30 14:37:22;;;;;;;;;;;30.40;84.10;;;29.50;35.29;95003.16;10274063;28;2216;-78
2021/07/30 14:42:25;;;;;;;;;;;30.40;83.20;;;29.71;34.53;95002.94;10268348;28;2146;-80
2021/07/30 14:47:27;;;;;;;;;;;30.30;83.10;;;30.10;34.67;95007.16;10277625;28;2201;-79
2021/07/30 14:52:30;;;;;;;;;;;30.70;83.10;;;30.02;33.85;95011.97;10279326;28;2197;-81
2021/07/30 14:57:33;;;;;;;;;;;30.70;81.50;;;29.73;33.64;95006.06;10285549;28;2236;-78
2021/07/30 15:02:37;;;;;;;;;;;30.80;80.10;;;29.47;35.36;94999.25;10291273;28;2142;-79
2021/07/30 15:07:40;;;;;;;;;;;30.30;82.00;;;29.31;35.48;95002.59;10288773;28;2117;-80
2021/07/30 15:12:43;;;;;;;;;;;30.30;82.10;;;29.90;34.35;94995.91;10280298;28;1910;-82
2021/07/30 15:17:45;;;;;;;;;;;30.50;81.90;;;30.24;33.37;95000.63;10278087;28;2276;-80
2021/07/30 15:22:48;;;;;;;;;;;30.80;80.80;;;30.30;34.46;94996.19;10283627;28;1751;-81
2021/07/30 15:27:51;;;;;;;;;;;31.00;81.50;;;29.77;34.08;94998.47;10268579;28;2074;-82
2021/07/30 15:32:54;;;;;;;;;;;30.90;79.60;;;30.05;33.92;94988.22;10275439;28;2105;-79
2021/07/30 15:37:56;;;;;;;;;;;30.80;79.90;;;29.59;36.39;94990.41;10293358;28;2130;-81
2021/07/30 15:42:59;;;;;;;;;;;30.50;81.90;;;29.39;34.62;94975.59;10276937;28;2078;-80
2021/07/30 15:48:02;;;;;;;;;;;30.40;80.80;;;29.29;36.32;94965.47;10288076;28;2042;-81
2021/07/30 15:53:04;;;;;;;;;;;30.40;81.20;;;29.37;35.74;94972.47;10287442;28;1956;-82
2021/07/30 15:58:07;;;;;;;;;;;30.30;81.10;;;29.34;35.67;94968.56;10280778;28;1903;-79
2021/07/30 16:03:10;;;;;;;;;;;30.20;81.00;;;29.41;35.54;94973.22;10287750;28;2064;-81
2021/07/30 16:08:13;;;;;;;;;;;30.20;81.80;;;29.01;37.13;94975.66;10289574;28;2153;-78
2021/07/30 16:13:15;;;;;;;;;;;30.00;82.80;;;28.84;38.01;94965.53;10283432;28;2021;-80
2021/07/30 16:18:18;;;;;;;;;;;29.80;82.50;;;28.93;38.09;94976.91;10274853;28;2090;-81
2021/07/30 16:23:21;;;;;;;;;;;29.70;83.60;;;28.44;39.94;94962.38;10277703;28;2258;-81
2021/07/30 16:28:24;;;;;;;;;;;29.60;84.80;;;28.66;38.20;94970.47;10279599;28;2047;-81
2021/07/30 16:33:27;;;;;;;;;;;29.50;84.40;;;28.92;38.09;94975.34;10288517;28;1915;-80
2021/07/30 16:38:30;;;;;;;;;;;29.50;84.00;;;29.03;38.34;94959.44;10284781;28;2028;-82
2021/07/30 16:43:33;;;;;;;;;;;29.60;84.60;;;28.77;38.97;94940.72;10290679;28;2023;-80
2021/07/30 16:48:35;;;;;;;;;;;29.60;84.00;;;28.35;38.84;94936.38;10289391;28;2130;-81
2021/07/30 16:53:38;;;;;;;;;;;29.40;83.40;;;28.44;39.47;94944.97;10299302;28;1981;-79
2021/07/30 16:58:41;;;;;;;;;;;29.30;84.70;;;28.01;41.07;94943.34;10289496;28;1829;-80
2021/07/30 17:03:44;;;;;;;;;;;28.90;85.10;;;28.25;39.67;94927.75;10279852;28;1866;-82
2021/07/30 17:08:46;;;;;;;;;;;28.90;85.20;;;28.29;40.09;94939.56;10288498;28;1856;-83
2021/07/30 17:13:49;;;;;;;;;;;29.00;86.00;;;28.36;39.56;94944.25;10284827;28;2387;-82
2021/07/30 17:18:52;;;;;;;;;;;29.00;85.70;;;28.26;40.47;94934.06;10286559;28;1879;-81
2021/07/30 17:23:55;;;;;;;;;;;29.00;86.10;;;27.99;41.47;94929.16;10281016;28;2063;-81
2021/07/30 17:28:58;;;;;;;;;;;28.90;86.00;;;27.72;42.24;94922.63;10281526;28;2370;-82
2021/07/30 17:34:01;;;;;;;;;;;28.60;87.20;;;27.23;42.75;94938.25;10283554;28;2078;-79
2021/07/30 17:39:05;;;;;;;;;;;28.30;88.00;;;27.09;43.95;94946.56;10289918;28;2403;-82
2021/07/30 17:44:08;;;;;;;;;;;28.10;89.00;;;26.97;43.66;94955.25;10286577;28;2094;-82
2021/07/30 17:49:11;;;;;;;;;;;27.90;88.80;;;26.99;43.58;94947.38;10289187;28;1849;-80
2021/07/30 17:54:14;;;;;;;;;;;27.80;89.20;;;26.75;45.00;94949.03;10312737;28;2158;-80
2021/07/30 17:59:16;;;;;;;;;;;27.70;90.10;;;26.58;45.53;94950.63;10295092;28;2102;-82
2021/07/30 18:04:19;;;;;;;;;;;27.60;90.90;;;26.37;46.23;94956.94;10294600;28;2031;-82
2021/07/30 18:09:22;;;;;;;;;;;27.40;91.90;;;26.16;46.90;94959.69;10293636;28;2141;-82
2021/07/30 18:14:26;;;;;;;;;;;27.10;92.50;;;25.91;47.70;94974.22;10305320;28;2036;-83
2021/07/30 18:19:29;;;;;;;;;;;26.90;92.90;;;25.81;55.36;95003.31;10287860;28;2043;-82
2021/07/30 18:24:32;;;;;;;;;;;26.80;98.30;;;22.36;75.40;95055.66;10293321;28;2182;-80
2021/07/30 18:29:34;;;;;;;;;;;25.20;99.90;;;21.02;88.95;95080.78;10280604;28;1816;-80
2021/07/30 18:34:37;;;;;;;;;;;22.90;99.90;;;20.95;87.24;95094.28;10296564;28;2138;-82
2021/07/30 18:39:40;;;;;;;;;;;21.90;99.90;;;20.89;84.69;95101.16;10286913;28;2071;-83
2021/07/30 18:44:43;;;;;;;;;;;21.70;99.90;;;20.81;85.13;95098.66;10284831;28;1995;-81
2021/07/30 18:49:45;;;;;;;;;;;21.50;99.90;;;20.65;85.78;95118.56;10297769;28;2169;-80
2021/07/30 18:54:48;;;;;;;;;;;21.50;99.90;;;20.69;85.08;95135.03;10298637;28;2094;-80
2021/07/30 18:59:51;;;;;;;;;;;21.40;99.90;;;20.56;88.24;95171.78;10288893;28;2151;-82
2021/07/30 19:04:54;;;;;;;;;;;21.40;99.90;;;20.31;88.85;95150.06;10291096;28;2145;-83
2021/07/30 19:09:57;;;;;;;;;;;21.20;99.90;;;19.98;88.84;95164.78;10292026;28;2514;-79
2021/07/30 19:14:59;;;;;;;;;;;21.00;99.90;;;20.02;87.62;95185.91;10314288;28;2123;-80
2021/07/30 19:20:02;;;;;;;;;;;20.90;99.90;;;19.95;86.75;95195.47;10325299;28;1876;-82
2021/07/30 19:25:05;;;;;;;;;;;20.80;99.90;;;19.78;86.13;95201.22;10329643;28;2499;-82
2021/07/30 19:30:08;;;;;;;;;;;20.70;99.90;;;19.82;86.09;95207.56;10326497;28;1910;-82
2021/07/30 19:35:10;;;;;;;;;;;20.70;99.90;;;19.85;85.56;95220.53;10334903;28;1992;-80
2021/07/30 19:40:13;;;;;;;;;;;20.70;99.90;;;19.72;85.62;95235.31;10324044;28;1385;-83
2021/07/30 19:45:16;;;;;;;;;;;20.60;99.90;;;19.64;84.37;95242.50;10321904;28;1536;-80
2021/07/30 19:50:18;;;;;;;;;;;20.60;99.90;;;19.60;84.54;95238.88;10319448;28;1183;-82
2021/07/30 19:55:21;;;;;;;;;;;20.40;99.90;;;19.61;84.11;95235.00;10309713;28;1906;-81
2021/07/30 20:00:24;;;;;;;;;;;20.40;99.90;;;19.64;82.92;95226.13;10301111;28;1571;-81
2021/07/30 20:05:27;;;;;;;;;;;20.40;99.90;;;19.49;82.78;95226.03;10293459;28;1627;-80
2021/07/30 20:10:30;;;;;;;;;;;20.40;99.90;;;19.57;80.99;95214.19;10307901;28;1533;-81
2021/07/30 20:15:34;;;;;;;;;;;20.30;99.90;;;19.42;82.76;95216.50;10319177;28;1907;-80
2021/07/30 20:20:37;;;;;;;;;;;20.30;99.90;;;19.40;81.91;95212.53;10309216;28;1514;-81
2021/07/30 20:25:40;;;;;;;;;;;20.20;99.90;;;19.48;80.49;95208.09;10311018;28;1337;-80
2021/07/30 20:30:43;;;;;;;;;;;20.30;99.90;;;19.45;80.52;95210.34;10310267;28;1730;-80
2021/07/30 20:35:45;;;;;;;;;;;20.30;99.90;;;19.36;81.29;95212.44;10297907;28;1895;-79
2021/07/30 20:40:48;;;;;;;;;;;20.20;99.90;;;19.31;82.45;95207.22;10300272;28;1581;-80
2021/07/30 20:45:51;;;;;;;;;;;20.20;99.90;;;19.18;81.87;95208.34;10296580;28;1466;-82
2021/07/30 20:50:54;;;;;;;;;;;20.10;99.90;;;19.20;82.37;95219.69;10296380;28;1242;-81
2021/07/30 20:55:56;;;;;;;;;;;20.10;99.90;;;19.19;81.18;95215.38;10299873;28;1903;-83
2021/07/30 21:00:59;;;;;;;;;;;20.00;99.90;;;19.18;81.50;95216.53;10292291;28;1448;-81
2021/07/30 21:06:02;;;;;;;;;;;20.00;99.90;;;18.99;82.51;95210.88;10284775;28;1569;-81
2021/07/30 21:11:04;;;;;;;;;;;19.90;99.90;;;19.18;82.76;95206.44;10290709;28;1300;-83
2021/07/30 21:16:07;;;;;;;;;;;19.90;99.90;;;19.18;82.62;95205.63;10292738;28;1966;-82
2021/07/30 21:21:10;;;;;;;;;;;19.90;99.90;;;19.14;81.47;95202.00;10285579;28;1644;-82
2021/07/30 21:26:13;;;;;;;;;;;19.90;99.90;;;19.15;82.69;95195.44;10294753;28;2101;-81
2021/07/30 21:31:15;;;;;;;;;;;19.90;99.90;;;19.34;80.83;95192.09;10283644;28;2123;-81
2021/07/30 21:36:18;;;;;;;;;;;20.00;99.90;;;19.34;80.28;95203.81;10292904;28;2185;-83
2021/07/30 21:41:21;;;;;;;;;;;20.10;99.90;;;19.34;81.06;95220.16;10277491;28;2000;-83
2021/07/30 21:46:23;;;;;;;;;;;20.10;99.90;;;19.44;79.83;95219.66;10283583;28;2081;-82
2021/07/30 21:51:27;;;;;;;;;;;20.20;99.90;;;19.58;79.18;95226.72;10284593;28;2139;-81
2021/07/30 21:56:30;;;;;;;;;;;20.30;99.90;;;19.28;79.90;95218.81;10285594;28;2108;-81
2021/07/30 22:01:32;;;;;;;;;;;20.20;99.90;;;19.14;81.70;95218.34;10293283;28;2067;-82
2021/07/30 22:06:35;;;;;;;;;;;20.10;99.90;;;19.12;82.37;95212.44;10310528;28;2051;-81
2021/07/30 22:11:38;;;;;;;;;;;20.00;99.90;;;19.01;81.04;95212.09;10311767;28;1861;-80
2021/07/30 22:16:41;;;;;;;;;;;19.90;99.90;;;18.99;81.84;95203.47;10288794;28;1997;-82
2021/07/30 22:21:43;;;;;;;;;;;19.90;99.90;;;19.02;81.89;95199.28;10287934;28;2019;-81
2021/07/30 22:26:46;;;;;;;;;;;19.90;99.90;;;19.04;81.40;95216.09;10281078;28;2101;-82
2021/07/30 22:31:49;;;;;;;;;;;19.90;99.90;;;19.13;81.71;95216.75;10287559;28;1915;-83
2021/07/30 22:36:51;;;;;;;;;;;20.00;99.90;;;19.10;81.69;95223.69;10315099;28;2008;-83
2021/07/30 22:42:07;;;;;;;;;;;20.00;99.90;;;19.04;82.87;95227.78;10312943;28;1970;-79
2021/07/30 22:47:10;;;;;;;;;;;19.90;99.90;;;19.02;83.81;95240.94;10303601;28;2074;-81
2021/07/30 22:52:13;;;;;;;;;;;19.90;99.90;;;18.98;84.48;95250.94;10279774;28;1766;-81
2021/07/30 22:57:16;;;;;;;;;;;19.80;99.90;;;19.10;82.92;95250.13;10293027;28;2006;-82
2021/07/30 23:02:19;;;;;;;;;;;19.90;99.90;;;19.17;82.79;95264.78;10284148;28;2152;-81
2021/07/30 23:07:22;;;;;;;;;;;19.90;99.90;;;19.10;84.80;95263.75;10292963;28;1942;-79
2021/07/30 23:12:25;;;;;;;;;;;20.00;99.90;;;19.07;86.43;95275.31;10288404;28;1643;-82